No particular awareness of the weather is required.    There are no Weather-warnings


Meteo18 Weather Cam more information Meteo18 Weather Cam


Thunder radar more information blitzortung!


Rain radar more information rain snow radar


Visit our other weather sites:

Template documentation
and downloads

And another site



Weather Underground History page Text

Daily Summary for June 13, 2017 Units:  Metric    English   Both
« Previous Day
Next Day »
Daily Weekly Monthly Yearly Custom
  High: Low: Average:
Temperature: 26.0 °C 12.4 °C 19.1 °C
Dew Point: 15.1 °C 9.9 °C 12.3 °C
Humidity: 85 % 48 % 66 %
Wind Speed: 20.9 km/h 0.0 km/h 7.5 km/h
Wind Gust: 27.4 km/h - -
Wind:- - East
Pressure: 1020.5 hPa 1016.1 hPa -
Precipitation: 0.0 mm    
Historical Graphs
 
 
Tabular Data for June 13, 2017
Time Temperature Dew Point Pressure Wind Wind Speed Wind Gust Humidity Rainfall Rate (Hourly)
00:02 15.9 °C 11.1 °C 1020.5 hPa NNW 4.8 km/h 9.7 km/h 73 % 0.0 mm
00:07 15.8 °C 11.0 °C 1020.5 hPa NNW 1.6 km/h 9.7 km/h 73 % 0.0 mm
00:12 15.6 °C 11.0 °C 1020.5 hPa NNW 3.2 km/h 9.7 km/h 74 % 0.0 mm
00:17 15.6 °C 11.0 °C 1020.2 hPa Calm   9.7 km/h 74 % 0.0 mm
00:22 15.5 °C 10.9 °C 1020.2 hPa NNW 4.8 km/h 6.4 km/h 74 % 0.0 mm
00:32 15.3 °C 10.9 °C 1020.2 hPa NNW 1.6 km/h 4.8 km/h 75 % 0.0 mm
00:37 15.3 °C 10.9 °C 1020.2 hPa Calm   6.4 km/h 75 % 0.0 mm
00:42 15.1 °C 10.7 °C 1020.2 hPa North 1.6 km/h 6.4 km/h 75 % 0.0 mm
00:52 15.0 °C 10.8 °C 1020.2 hPa NNW 3.2 km/h 6.4 km/h 76 % 0.0 mm
00:57 15.1 °C 10.7 °C 1020.2 hPa NNW 4.8 km/h 8.0 km/h 75 % 0.0 mm
01:02 15.1 °C 10.7 °C 1020.2 hPa NNE 4.8 km/h 8.0 km/h 75 % 0.0 mm
01:12 15.1 °C 10.7 °C 1020.2 hPa NNW 4.8 km/h 8.0 km/h 75 % 0.0 mm
01:17 15.0 °C 10.6 °C 1020.2 hPa NNW 3.2 km/h 8.0 km/h 75 % 0.0 mm
01:22 14.9 °C 10.5 °C 1020.2 hPa Calm   8.0 km/h 75 % 0.0 mm
01:32 14.6 °C 10.4 °C 1020.2 hPa North 3.2 km/h 8.0 km/h 76 % 0.0 mm
01:42 14.5 °C 10.5 °C 1020.2 hPa ENE 4.8 km/h 6.4 km/h 77 % 0.0 mm
01:47 14.3 °C 10.3 °C 1020.2 hPa NNW 3.2 km/h 6.4 km/h 77 % 0.0 mm
01:52 14.1 °C 10.3 °C 1020.2 hPa North 3.2 km/h 6.4 km/h 78 % 0.0 mm
01:57 13.9 °C 10.3 °C 1020.2 hPa NNW 1.6 km/h 6.4 km/h 79 % 0.0 mm
02:02 14.0 °C 10.2 °C 1020.2 hPa North 3.2 km/h 8.0 km/h 78 % 0.0 mm
02:07 13.9 °C 10.1 °C 1020.2 hPa NE 4.8 km/h 8.0 km/h 78 % 0.0 mm
02:12 13.7 °C 10.1 °C 1020.2 hPa NNW 3.2 km/h 8.0 km/h 79 % 0.0 mm
02:17 13.8 °C 10.2 °C 1020.2 hPa NW 6.4 km/h 6.4 km/h 79 % 0.0 mm
02:22 13.9 °C 10.3 °C 1020.2 hPa NNE 1.6 km/h 8.0 km/h 79 % 0.0 mm
02:27 13.9 °C 10.1 °C 1020.2 hPa NE 3.2 km/h 11.3 km/h 78 % 0.0 mm
02:32 14.0 °C 10.2 °C 1020.2 hPa NNW 4.8 km/h 12.9 km/h 78 % 0.0 mm
02:37 13.9 °C 10.3 °C 1020.2 hPa NE 3.2 km/h 12.9 km/h 79 % 0.0 mm
02:42 13.9 °C 10.3 °C 1019.9 hPa NNE 3.2 km/h 12.9 km/h 79 % 0.0 mm
02:47 13.9 °C 10.3 °C 1019.9 hPa NW 3.2 km/h 12.9 km/h 79 % 0.0 mm
02:52 13.8 °C 10.4 °C 1019.9 hPa NNE 3.2 km/h 9.7 km/h 80 % 0.0 mm
02:57 13.7 °C 10.3 °C 1019.9 hPa NNE 3.2 km/h 9.7 km/h 80 % 0.0 mm
03:02 13.7 °C 10.3 °C 1019.9 hPa North 4.8 km/h 9.7 km/h 80 % 0.0 mm
03:12 13.7 °C 10.3 °C 1019.9 hPa NNW 6.4 km/h 12.9 km/h 80 % 0.0 mm
03:17 13.7 °C 10.5 °C 1019.9 hPa NNW 3.2 km/h 12.9 km/h 81 % 0.0 mm
03:22 13.6 °C 10.4 °C 1019.9 hPa NNW 1.6 km/h 12.9 km/h 81 % 0.0 mm
03:32 13.4 °C 10.4 °C 1019.9 hPa NE 1.6 km/h 12.9 km/h 82 % 0.0 mm
03:42 13.2 °C 10.4 °C 1019.9 hPa NE 3.2 km/h 9.7 km/h 83 % 0.0 mm
03:47 13.2 °C 10.4 °C 1019.9 hPa NNW 1.6 km/h 9.7 km/h 83 % 0.0 mm
03:52 13.3 °C 10.3 °C 1019.9 hPa NE 4.8 km/h 9.7 km/h 82 % 0.0 mm
04:02 13.2 °C 10.4 °C 1019.9 hPa North 3.2 km/h 9.7 km/h 83 % 0.0 mm
04:07 13.2 °C 10.4 °C 1019.9 hPa Calm   9.7 km/h 83 % 0.0 mm
04:12 13.2 °C 10.4 °C 1019.9 hPa ENE 4.8 km/h 9.7 km/h 83 % 0.0 mm
04:17 13.1 °C 10.3 °C 1019.5 hPa NNW 3.2 km/h 8.0 km/h 83 % 0.0 mm
04:22 13.1 °C 10.3 °C 1019.9 hPa North 3.2 km/h 8.0 km/h 83 % 0.0 mm
04:27 13.1 °C 10.3 °C 1019.9 hPa North 4.8 km/h 9.7 km/h 83 % 0.0 mm
04:32 13.0 °C 10.2 °C 1019.9 hPa NNE 4.8 km/h 9.7 km/h 83 % 0.0 mm
04:37 12.9 °C 10.1 °C 1019.9 hPa North 8.0 km/h 9.7 km/h 83 % 0.0 mm
04:42 12.9 °C 10.3 °C 1019.9 hPa NNW 4.8 km/h 9.7 km/h 84 % 0.0 mm
04:47 12.9 °C 10.3 °C 1019.9 hPa Calm   9.7 km/h 84 % 0.0 mm
04:52 12.9 °C 10.3 °C 1019.9 hPa Calm   9.7 km/h 84 % 0.0 mm
04:57 12.8 °C 10.2 °C 1019.9 hPa NE 1.6 km/h 9.7 km/h 84 % 0.0 mm
05:02 12.8 °C 10.2 °C 1019.9 hPa North 6.4 km/h 9.7 km/h 84 % 0.0 mm
05:07 12.8 °C 10.2 °C 1019.9 hPa NNE 8.0 km/h 8.0 km/h 84 % 0.0 mm
05:17 12.7 °C 10.1 °C 1019.5 hPa NNE 1.6 km/h 8.0 km/h 84 % 0.0 mm
05:22 12.7 °C 10.1 °C 1019.5 hPa Calm   8.0 km/h 84 % 0.0 mm
05:27 12.7 °C 10.2 °C 1019.5 hPa NNW 1.6 km/h 9.7 km/h 85 % 0.0 mm
05:32 12.6 °C 10.1 °C 1019.5 hPa NNW 4.8 km/h 9.7 km/h 85 % 0.0 mm
05:42 12.6 °C 10.1 °C 1019.5 hPa North 4.8 km/h 9.7 km/h 85 % 0.0 mm
05:52 12.6 °C 10.1 °C 1019.5 hPa NE 8.0 km/h 9.7 km/h 85 % 0.0 mm
05:57 12.6 °C 10.1 °C 1019.5 hPa NNE 3.2 km/h 9.7 km/h 85 % 0.0 mm
06:02 12.6 °C 10.1 °C 1019.5 hPa North 4.8 km/h 11.3 km/h 85 % 0.0 mm
06:12 12.6 °C 10.1 °C 1019.5 hPa ENE 4.8 km/h 11.3 km/h 85 % 0.0 mm
06:17 12.5 °C 10.0 °C 1019.5 hPa NNE 3.2 km/h 11.3 km/h 85 % 0.0 mm
06:22 12.4 °C 9.9 °C 1019.5 hPa NNE 9.7 km/h 11.3 km/h 85 % 0.0 mm
06:32 12.7 °C 10.2 °C 1019.5 hPa NE 4.8 km/h 12.9 km/h 85 % 0.0 mm
06:37 12.8 °C 10.3 °C 1019.5 hPa NE 6.4 km/h 12.9 km/h 85 % 0.0 mm
06:42 13.1 °C 10.5 °C 1019.5 hPa NW 1.6 km/h 12.9 km/h 84 % 0.0 mm
06:47 13.3 °C 10.5 °C 1019.5 hPa NE 4.8 km/h 12.9 km/h 83 % 0.0 mm
06:52 13.5 °C 10.5 °C 1019.5 hPa NE 11.3 km/h 12.9 km/h 82 % 0.0 mm
06:57 13.7 °C 10.5 °C 1019.5 hPa North 3.2 km/h 12.9 km/h 81 % 0.0 mm
07:02 13.7 °C 10.5 °C 1019.5 hPa North 6.4 km/h 19.3 km/h 81 % 0.0 mm
07:12 13.9 °C 10.5 °C 1019.5 hPa NNE 11.3 km/h 19.3 km/h 80 % 0.0 mm
07:17 14.0 °C 10.6 °C 1019.5 hPa NNE 8.0 km/h 16.1 km/h 80 % 0.0 mm
07:27 14.3 °C 10.7 °C 1019.5 hPa NE 8.0 km/h 19.3 km/h 79 % 0.0 mm
07:32 14.3 °C 10.7 °C 1019.9 hPa NNE 6.4 km/h 19.3 km/h 79 % 0.0 mm
07:42 14.2 °C 10.6 °C 1019.9 hPa NE 11.3 km/h 19.3 km/h 79 % 0.0 mm
07:52 14.2 °C 10.6 °C 1019.9 hPa NE 9.7 km/h 19.3 km/h 79 % 0.0 mm
08:02 14.2 °C 10.8 °C 1019.5 hPa NE 6.4 km/h 19.3 km/h 80 % 0.0 mm
08:12 14.3 °C 10.9 °C 1019.5 hPa NNE 12.9 km/h 19.3 km/h 80 % 0.0 mm
08:17 14.4 °C 11.0 °C 1019.5 hPa NNE 12.9 km/h 19.3 km/h 80 % 0.0 mm
08:22 14.4 °C 10.8 °C 1019.5 hPa NE 11.3 km/h 19.3 km/h 79 % 0.0 mm
08:27 14.6 °C 11.0 °C 1019.5 hPa East 1.6 km/h 19.3 km/h 79 % 0.0 mm
08:32 14.7 °C 11.1 °C 1019.5 hPa NE 4.8 km/h 19.3 km/h 79 % 0.0 mm
08:37 14.8 °C 11.2 °C 1019.9 hPa NNE 9.7 km/h 19.3 km/h 79 % 0.0 mm
08:47 15.1 °C 11.3 °C 1019.9 hPa NNE 8.0 km/h 17.7 km/h 78 % 0.0 mm
08:52 15.2 °C 11.4 °C 1019.9 hPa Calm   17.7 km/h 78 % 0.0 mm
09:02 15.9 °C 11.7 °C 1019.5 hPa NE 16.1 km/h 16.1 km/h 76 % 0.0 mm
09:12 16.3 °C 11.7 °C 1019.9 hPa NE 11.3 km/h 17.7 km/h 74 % 0.0 mm
09:17 16.8 °C 12.1 °C 1019.9 hPa NNE 14.5 km/h 19.3 km/h 74 % 0.0 mm
09:22 17.1 °C 12.0 °C 1019.5 hPa NNE 11.3 km/h 19.3 km/h 72 % 0.0 mm
09:27 17.1 °C 11.6 °C 1019.5 hPa NE 14.5 km/h 19.3 km/h 70 % 0.0 mm
09:32 17.2 °C 12.1 °C 1019.5 hPa ENE 4.8 km/h 22.5 km/h 72 % 0.0 mm
09:37 17.5 °C 12.2 °C 1019.5 hPa NE 4.8 km/h 22.5 km/h 71 % 0.0 mm
09:42 17.7 °C 12.2 °C 1019.5 hPa NE 6.4 km/h 22.5 km/h 70 % 0.0 mm
09:52 17.9 °C 12.4 °C 1019.5 hPa NNE 12.9 km/h 22.5 km/h 70 % 0.0 mm
09:57 17.9 °C 11.9 °C 1019.2 hPa East 11.3 km/h 22.5 km/h 68 % 0.0 mm
10:02 18.1 °C 12.5 °C 1019.5 hPa NNE 3.2 km/h 22.5 km/h 70 % 0.0 mm
10:12 18.1 °C 12.3 °C 1019.5 hPa ENE 9.7 km/h 20.9 km/h 69 % 0.0 mm
10:17 17.9 °C 12.1 °C 1019.5 hPa NE 14.5 km/h 20.9 km/h 69 % 0.0 mm
10:22 18.0 °C 12.4 °C 1019.5 hPa NE 11.3 km/h 20.9 km/h 70 % 0.0 mm
10:32 18.4 °C 12.6 °C 1019.5 hPa NE 11.3 km/h 20.9 km/h 69 % 0.0 mm
10:42 18.9 °C 12.4 °C 1019.5 hPa NNE 16.1 km/h 20.9 km/h 66 % 0.0 mm
10:52 18.9 °C 12.2 °C 1019.5 hPa NE 8.0 km/h 22.5 km/h 65 % 0.0 mm
10:57 18.9 °C 11.9 °C 1019.5 hPa NE 17.7 km/h 22.5 km/h 64 % 0.0 mm
11:02 18.8 °C 11.8 °C 1019.5 hPa NE 16.1 km/h 25.7 km/h 64 % 0.0 mm
11:07 18.8 °C 12.1 °C 1019.5 hPa ENE 9.7 km/h 25.7 km/h 65 % 0.0 mm
11:12 18.9 °C 12.2 °C 1019.5 hPa NE 19.3 km/h 25.7 km/h 65 % 0.0 mm
11:17 19.3 °C 12.3 °C 1019.5 hPa NNE 14.5 km/h 24.1 km/h 64 % 0.0 mm
11:22 19.9 °C 12.6 °C 1019.5 hPa ENE 16.1 km/h 22.5 km/h 63 % 0.0 mm
11:32 20.3 °C 12.5 °C 1019.2 hPa NE 8.0 km/h 22.5 km/h 61 % 0.0 mm
11:42 20.8 °C 12.5 °C 1019.2 hPa NE 17.7 km/h 27.4 km/h 59 % 0.0 mm
11:47 20.7 °C 12.4 °C 1019.2 hPa ENE 9.7 km/h 27.4 km/h 59 % 0.0 mm
11:52 20.8 °C 12.0 °C 1019.2 hPa NE 12.9 km/h 24.1 km/h 57 % 0.0 mm
11:57 20.8 °C 12.2 °C 1019.2 hPa ENE 11.3 km/h 25.7 km/h 58 % 0.0 mm
12:02 21.0 °C 12.4 °C 1019.2 hPa ENE 4.8 km/h 25.7 km/h 58 % 0.0 mm
12:12 21.2 °C 12.3 °C 1019.2 hPa NE 12.9 km/h 22.5 km/h 57 % 0.0 mm
12:17 21.3 °C 12.7 °C 1018.8 hPa NE 11.3 km/h 22.5 km/h 58 % 0.0 mm
12:22 21.5 °C 12.1 °C 1018.8 hPa NE 16.1 km/h 20.9 km/h 55 % 0.0 mm
12:27 21.7 °C 12.8 °C 1018.8 hPa NNE 16.1 km/h 20.9 km/h 57 % 0.0 mm
12:32 21.7 °C 12.3 °C 1018.8 hPa ENE 12.9 km/h 25.7 km/h 55 % 0.0 mm
12:42 21.9 °C 13.0 °C 1018.8 hPa NNE 20.9 km/h 24.1 km/h 57 % 0.0 mm
12:47 22.0 °C 12.5 °C 1018.8 hPa NNE 20.9 km/h 24.1 km/h 55 % 0.0 mm
12:52 22.0 °C 12.5 °C 1018.8 hPa NE 4.8 km/h 24.1 km/h 55 % 0.0 mm
12:57 22.0 °C 12.8 °C 1018.8 hPa NE 9.7 km/h 24.1 km/h 56 % 0.0 mm
13:02 22.0 °C 12.5 °C 1018.8 hPa ENE 9.7 km/h 24.1 km/h 55 % 0.0 mm
13:07 22.6 °C 13.4 °C 1018.8 hPa ENE 9.7 km/h 19.3 km/h 56 % 0.0 mm
13:12 22.7 °C 12.6 °C 1018.8 hPa Calm   19.3 km/h 53 % 0.0 mm
13:17 22.8 °C 13.0 °C 1018.8 hPa NE 12.9 km/h 19.3 km/h 54 % 0.0 mm
13:22 22.9 °C 13.1 °C 1018.5 hPa ENE 12.9 km/h 19.3 km/h 54 % 0.0 mm
13:32 22.7 °C 12.9 °C 1018.5 hPa ENE 11.3 km/h 24.1 km/h 54 % 0.0 mm
13:37 22.7 °C 13.2 °C 1018.5 hPa NE 8.0 km/h 24.1 km/h 55 % 0.0 mm
13:42 22.8 °C 12.7 °C 1018.5 hPa NNE 9.7 km/h 24.1 km/h 53 % 0.0 mm
13:52 22.8 °C 12.7 °C 1018.5 hPa NNE 9.7 km/h 24.1 km/h 53 % 0.0 mm
13:57 22.8 °C 13.0 °C 1018.5 hPa North 14.5 km/h 24.1 km/h 54 % 0.0 mm
14:02 23.1 °C 13.3 °C 1018.5 hPa ENE 11.3 km/h 24.1 km/h 54 % 0.0 mm
14:07 23.2 °C 13.4 °C 1018.5 hPa North 8.0 km/h 22.5 km/h 54 % 0.0 mm
14:12 23.4 °C 13.3 °C 1018.5 hPa NE 12.9 km/h 19.3 km/h 53 % 0.0 mm
14:17 23.4 °C 13.0 °C 1018.5 hPa NE 17.7 km/h 19.3 km/h 52 % 0.0 mm
14:22 23.7 °C 13.6 °C 1018.5 hPa NNE 9.7 km/h 20.9 km/h 53 % 0.0 mm
14:32 23.9 °C 12.8 °C 1018.5 hPa ENE 8.0 km/h 17.7 km/h 50 % 0.0 mm
14:42 24.2 °C 13.7 °C 1018.5 hPa NE 9.7 km/h 16.1 km/h 52 % 0.0 mm
14:52 24.4 °C 13.6 °C 1018.2 hPa NE 6.4 km/h 19.3 km/h 51 % 0.0 mm
14:57 24.4 °C 13.6 °C 1018.2 hPa ENE 8.0 km/h 19.3 km/h 51 % 0.0 mm
15:02 24.4 °C 13.3 °C 1018.2 hPa NE 6.4 km/h 19.3 km/h 50 % 0.0 mm
15:12 24.3 °C 12.9 °C 1018.2 hPa Calm   17.7 km/h 49 % 0.0 mm
15:22 24.3 °C 13.2 °C 1018.2 hPa East 3.2 km/h 17.7 km/h 50 % 0.0 mm
15:32 24.3 °C 13.5 °C 1017.8 hPa ENE 12.9 km/h 19.3 km/h 51 % 0.0 mm
15:37 24.3 °C 13.2 °C 1017.8 hPa ENE 9.7 km/h 19.3 km/h 50 % 0.0 mm
15:42 24.4 °C 13.9 °C 1017.5 hPa ENE 11.3 km/h 19.3 km/h 52 % 0.0 mm
15:52 24.3 °C 13.8 °C 1017.5 hPa NNE 6.4 km/h 17.7 km/h 52 % 0.0 mm
15:57 24.6 °C 13.8 °C 1017.5 hPa East 9.7 km/h 19.3 km/h 51 % 0.0 mm
16:02 24.9 °C 14.1 °C 1017.5 hPa NE 9.7 km/h 19.3 km/h 51 % 0.0 mm
16:07 24.8 °C 14.0 °C 1017.5 hPa NE 3.2 km/h 19.3 km/h 51 % 0.0 mm
16:12 24.9 °C 13.8 °C 1017.2 hPa NE 8.0 km/h 17.7 km/h 50 % 0.0 mm
16:17 24.9 °C 13.5 °C 1017.5 hPa NNW 9.7 km/h 17.7 km/h 49 % 0.0 mm
16:22 24.8 °C 13.7 °C 1017.5 hPa NE 8.0 km/h 16.1 km/h 50 % 0.0 mm
16:32 24.7 °C 13.9 °C 1017.2 hPa ENE 3.2 km/h 16.1 km/h 51 % 0.0 mm
16:37 25.1 °C 13.9 °C 1017.2 hPa NE 3.2 km/h 16.1 km/h 50 % 0.0 mm
16:42 25.1 °C 13.6 °C 1017.2 hPa ENE 9.7 km/h 16.1 km/h 49 % 0.0 mm
16:52 25.1 °C 13.9 °C 1017.2 hPa NE 4.8 km/h 14.5 km/h 50 % 0.0 mm
16:57 25.0 °C 14.2 °C 1017.2 hPa ENE 9.7 km/h 14.5 km/h 51 % 0.0 mm
17:02 25.1 °C 13.6 °C 1017.2 hPa ENE 4.8 km/h 14.5 km/h 49 % 0.0 mm
17:07 25.0 °C 13.9 °C 1017.2 hPa NE 11.3 km/h 14.5 km/h 50 % 0.0 mm
17:12 24.9 °C 14.1 °C 1017.2 hPa NE 3.2 km/h 14.5 km/h 51 % 0.0 mm
17:17 25.1 °C 13.6 °C 1017.2 hPa ENE 8.0 km/h 12.9 km/h 49 % 0.0 mm
17:22 24.9 °C 14.1 °C 1016.8 hPa NE 3.2 km/h 16.1 km/h 51 % 0.0 mm
17:27 25.2 °C 14.0 °C 1016.8 hPa NNE 4.8 km/h 16.1 km/h 50 % 0.0 mm
17:32 25.3 °C 14.1 °C 1016.8 hPa North 3.2 km/h 16.1 km/h 50 % 0.0 mm
17:37 25.4 °C 13.6 °C 1016.8 hPa ENE 4.8 km/h 14.5 km/h 48 % 0.0 mm
17:42 25.3 °C 13.5 °C 1016.8 hPa NE 9.7 km/h 12.9 km/h 48 % 0.0 mm
17:47 25.4 °C 14.2 °C 1016.8 hPa ENE 6.4 km/h 14.5 km/h 50 % 0.0 mm
17:52 25.4 °C 13.9 °C 1016.8 hPa ENE 6.4 km/h 16.1 km/h 49 % 0.0 mm
17:57 25.6 °C 14.4 °C 1016.8 hPa NE 8.0 km/h 16.1 km/h 50 % 0.0 mm
18:02 25.4 °C 14.2 °C 1016.8 hPa NNE 4.8 km/h 16.1 km/h 50 % 0.0 mm
18:07 25.4 °C 13.9 °C 1016.8 hPa East 4.8 km/h 14.5 km/h 49 % 0.0 mm
18:12 25.5 °C 14.3 °C 1016.8 hPa NE 1.6 km/h 14.5 km/h 50 % 0.0 mm
18:17 25.8 °C 14.3 °C 1016.5 hPa NNE 6.4 km/h 14.5 km/h 49 % 0.0 mm
18:27 26.0 °C 14.1 °C 1016.5 hPa NE 9.7 km/h 14.5 km/h 48 % 0.0 mm
18:32 25.8 °C 14.3 °C 1016.1 hPa NNE 8.0 km/h 14.5 km/h 49 % 0.0 mm
18:37 25.7 °C 14.2 °C 1016.1 hPa North 4.8 km/h 25.7 km/h 49 % 0.0 mm
18:42 25.6 °C 14.1 °C 1016.1 hPa NE 4.8 km/h 25.7 km/h 49 % 0.0 mm
18:47 25.5 °C 14.0 °C 1016.1 hPa NNE 11.3 km/h 20.9 km/h 49 % 0.0 mm
18:52 25.6 °C 14.7 °C 1016.1 hPa NNE 9.7 km/h 20.9 km/h 51 % 0.0 mm
19:02 25.2 °C 14.6 °C 1016.5 hPa North 6.4 km/h 20.9 km/h 52 % 0.0 mm
19:12 25.1 °C 15.1 °C 1016.5 hPa NE 8.0 km/h 19.3 km/h 54 % 0.0 mm
19:17 25.0 °C 15.0 °C 1016.5 hPa ENE 6.4 km/h 19.3 km/h 54 % 0.0 mm
19:22 25.1 °C 15.1 °C 1016.8 hPa NNE 12.9 km/h 17.7 km/h 54 % 0.0 mm
19:32 24.8 °C 14.9 °C 1016.5 hPa NE 16.1 km/h 20.9 km/h 54 % 0.0 mm
19:37 24.7 °C 14.8 °C 1016.8 hPa NE 9.7 km/h 20.9 km/h 54 % 0.0 mm
19:42 24.8 °C 14.9 °C 1017.2 hPa ENE 8.0 km/h 20.9 km/h 54 % 0.0 mm
19:47 24.6 °C 14.7 °C 1017.2 hPa NE 14.5 km/h 20.9 km/h 54 % 0.0 mm
19:52 24.4 °C 14.8 °C 1017.2 hPa ENE 6.4 km/h 19.3 km/h 55 % 0.0 mm
19:57 24.2 °C 14.6 °C 1017.2 hPa North 12.9 km/h 19.3 km/h 55 % 0.0 mm
20:02 24.0 °C 14.7 °C 1017.2 hPa NE 8.0 km/h 19.3 km/h 56 % 0.0 mm
20:07 23.8 °C 14.8 °C 1017.2 hPa NNW 6.4 km/h 19.3 km/h 57 % 0.0 mm
20:12 23.6 °C 14.9 °C 1017.2 hPa NNE 6.4 km/h 19.3 km/h 58 % 0.0 mm
20:17 23.3 °C 14.8 °C 1017.2 hPa North 4.8 km/h 14.5 km/h 59 % 0.0 mm
20:22 23.1 °C 14.4 °C 1017.5 hPa NNW 8.0 km/h 11.3 km/h 58 % 0.0 mm
20:32 22.7 °C 14.0 °C 1017.5 hPa NNE 6.4 km/h 12.9 km/h 58 % 0.0 mm
20:37 22.6 °C 14.2 °C 1017.5 hPa NNW 8.0 km/h 12.9 km/h 59 % 0.0 mm
20:42 22.4 °C 14.0 °C 1017.5 hPa NNW 8.0 km/h 12.9 km/h 59 % 0.0 mm
20:47 22.3 °C 13.9 °C 1017.5 hPa NNW 8.0 km/h 14.5 km/h 59 % 0.0 mm
20:52 22.2 °C 13.8 °C 1017.5 hPa NNE 8.0 km/h 14.5 km/h 59 % 0.0 mm
20:57 21.9 °C 13.5 °C 1017.2 hPa North 12.9 km/h 16.1 km/h 59 % 0.0 mm
21:02 21.8 °C 13.4 °C 1017.2 hPa NNE 6.4 km/h 16.1 km/h 59 % 0.0 mm
21:12 21.6 °C 13.0 °C 1017.2 hPa NNE 8.0 km/h 22.5 km/h 58 % 0.0 mm
21:17 21.5 °C 12.9 °C 1016.8 hPa NNE 12.9 km/h 22.5 km/h 58 % 0.0 mm
21:22 21.5 °C 12.6 °C 1016.5 hPa NE 20.9 km/h 22.5 km/h 57 % 0.0 mm
21:32 21.5 °C 12.4 °C 1016.1 hPa ENE 11.3 km/h 22.5 km/h 56 % 0.0 mm
21:37 21.5 °C 12.4 °C 1016.5 hPa NNE 17.7 km/h 25.7 km/h 56 % 0.0 mm
21:42 21.4 °C 12.3 °C 1016.5 hPa NNE 9.7 km/h 25.7 km/h 56 % 0.0 mm
21:52 21.1 °C 12.5 °C 1016.5 hPa WNW 6.4 km/h 22.5 km/h 58 % 0.0 mm
21:57 21.0 °C 12.9 °C 1016.5 hPa NNE 3.2 km/h 16.1 km/h 60 % 0.0 mm
22:02 20.8 °C 13.3 °C 1016.5 hPa NNE 12.9 km/h 19.3 km/h 62 % 0.0 mm
22:07 20.7 °C 13.2 °C 1016.5 hPa North 9.7 km/h 22.5 km/h 62 % 0.0 mm
22:12 20.7 °C 13.2 °C 1016.8 hPa North 4.8 km/h 22.5 km/h 62 % 0.0 mm
22:17 20.6 °C 13.3 °C 1017.2 hPa NE 20.9 km/h 22.5 km/h 63 % 0.0 mm
22:22 20.6 °C 13.3 °C 1017.2 hPa NE 16.1 km/h 24.1 km/h 63 % 0.0 mm
22:32 20.3 °C 13.3 °C 1017.5 hPa NNE 8.0 km/h 24.1 km/h 64 % 0.0 mm
22:37 20.3 °C 13.3 °C 1017.5 hPa ENE 8.0 km/h 20.9 km/h 64 % 0.0 mm
22:42 20.2 °C 13.4 °C 1017.2 hPa NE 11.3 km/h 20.9 km/h 65 % 0.0 mm
22:52 20.0 °C 13.5 °C 1017.8 hPa NNE 8.0 km/h 25.7 km/h 66 % 0.0 mm
22:57 19.9 °C 13.6 °C 1017.8 hPa NE 4.8 km/h 25.7 km/h 67 % 0.0 mm
23:02 19.8 °C 13.7 °C 1017.8 hPa NE 12.9 km/h 25.7 km/h 68 % 0.0 mm
23:12 19.7 °C 13.9 °C 1018.2 hPa North 6.4 km/h 14.5 km/h 69 % 0.0 mm
23:22 19.5 °C 13.7 °C 1018.8 hPa NNE 1.6 km/h 14.5 km/h 69 % 0.0 mm
23:27 19.4 °C 13.8 °C 1018.8 hPa Calm   14.5 km/h 70 % 0.0 mm
23:32 19.4 °C 14.0 °C 1018.8 hPa Calm   14.5 km/h 71 % 0.0 mm
23:37 19.2 °C 14.0 °C 1018.8 hPa Calm   6.4 km/h 72 % 0.0 mm
23:42 19.0 °C 14.3 °C 1018.8 hPa NE 3.2 km/h 6.4 km/h 74 % 0.0 mm
23:47 18.8 °C 13.9 °C 1018.5 hPa ENE 4.8 km/h 11.3 km/h 73 % 0.0 mm
23:52 18.7 °C 14.4 °C 1017.8 hPa NE 4.8 km/h 17.7 km/h 76 % 0.0 mm
Meteo18
Compliments of Weather Underground - 4 mb

Script developed by  Jim McMurry - jmcmurry@mwt.net Adapted for the template by  Wim van der Kuil - Leuven-Template.eu

You find our weather info also at:

European Weather Network

Weather Underground

Equipment we use:

Weather-station
Davis Vue

Weather-program
Meteohub

Weather-server
Raspberry PI 2 B+

Provider
1 and 1

Davis Vue

Meteohub

Raspberry PI 2 B+

1 and 1